AFL27 ULLI-UUEE
Flight info
| Callsign | AFL27 |
|---|---|
| Flight time | N/A |
| Altitude | 33000 |
| Route | SUGIN1A SUGIN T873 NIRGI T73 NAMIN NAMIN3E |
| Aircraft | A21N/M-SDE2E3FGHIRWXY/LB1 |
Departure
| Time | 2026-04-30 14:42 |
|---|---|
| Airport | Pulkovo Airport (ULLI) |
Arrival
| Time | N/A |
|---|---|
| Airport | Sheremetyevo International Airport (UUEE) |
| Time | Latitude | Longitude | Altitude | Speed | Heading |
|---|---|---|---|---|---|
| 2026-04-30 14:09 | 59.80037 | 30.26823 | 87 ft | 0 kts | 106° |
| 2026-04-30 14:30 | 59.80041 | 30.26797 | 87 ft | 2 kts | 106° |
| 2026-04-30 14:31 | 59.80047 | 30.26750 | 87 ft | 2 kts | 90° |
| 2026-04-30 14:31 | 59.80039 | 30.26693 | 87 ft | 2 kts | 56° |
| 2026-04-30 14:31 | 59.80029 | 30.26670 | 87 ft | 2 kts | 38° |
| 2026-04-30 14:32 | 59.80009 | 30.26650 | 87 ft | 1 kts | 14° |
| 2026-04-30 14:32 | 59.80007 | 30.26649 | 87 ft | 0 kts | 15° |
| 2026-04-30 14:34 | 59.80009 | 30.26650 | 87 ft | 0 kts | 13° |
| 2026-04-30 14:34 | 59.80027 | 30.26658 | 87 ft | 7 kts | 12° |
| 2026-04-30 14:34 | 59.80087 | 30.26688 | 87 ft | 9 kts | 20° |
| 2026-04-30 14:35 | 59.80217 | 30.26767 | 87 ft | 10 kts | 17° |
| 2026-04-30 14:35 | 59.80288 | 30.26808 | 87 ft | 10 kts | 15° |
| 2026-04-30 14:35 | 59.80360 | 30.26849 | 87 ft | 10 kts | 21° |
| 2026-04-30 14:36 | 59.80381 | 30.26982 | 87 ft | 11 kts | 105° |
| 2026-04-30 14:36 | 59.80353 | 30.27158 | 87 ft | 15 kts | 107° |
| 2026-04-30 14:36 | 59.80319 | 30.27385 | 87 ft | 18 kts | 112° |
| 2026-04-30 14:36 | 59.80278 | 30.27652 | 87 ft | 21 kts | 107° |
| 2026-04-30 14:37 | 59.80240 | 30.27927 | 87 ft | 20 kts | 109° |
| 2026-04-30 14:37 | 59.80197 | 30.28210 | 87 ft | 24 kts | 103° |
| 2026-04-30 14:37 | 59.80149 | 30.28521 | 87 ft | 23 kts | 103° |
| 2026-04-30 14:37 | 59.80105 | 30.28821 | 87 ft | 21 kts | 106° |
| 2026-04-30 14:38 | 59.80080 | 30.28984 | 87 ft | 0 kts | 109° |
| 2026-04-30 14:38 | 59.80079 | 30.28989 | 87 ft | 0 kts | 109° |
| 2026-04-30 14:38 | 59.80054 | 30.29164 | 87 ft | 29 kts | 106° |
| 2026-04-30 14:38 | 59.79997 | 30.29530 | 87 ft | 26 kts | 105° |
| 2026-04-30 14:39 | 59.79948 | 30.29875 | 87 ft | 25 kts | 106° |
| 2026-04-30 14:39 | 59.79970 | 30.30097 | 87 ft | 7 kts | 45° |
| 2026-04-30 14:39 | 59.79973 | 30.30101 | 87 ft | 0 kts | 44° |
| 2026-04-30 14:40 | 59.80006 | 30.30172 | 87 ft | 17 kts | 49° |
| 2026-04-30 14:40 | 59.80092 | 30.30293 | 87 ft | 10 kts | 358° |
| 2026-04-30 14:40 | 59.80130 | 30.30215 | 87 ft | 0 kts | 286° |
| 2026-04-30 14:41 | 59.80140 | 30.30152 | 87 ft | 27 kts | 287° |
| 2026-04-30 14:41 | 59.80267 | 30.29293 | 87 ft | 100 kts | 287° |
| 2026-04-30 14:41 | 59.80529 | 30.27551 | 87 ft | 160 kts | 285° |
| 2026-04-30 14:41 | 59.80832 | 30.25329 | 581 ft | 165 kts | 285° |
| 2026-04-30 14:42 | 59.81121 | 30.23291 | 1397 ft | 151 kts | 288° |
| 2026-04-30 14:42 | 59.81454 | 30.21270 | 1851 ft | 159 kts | 291° |
| 2026-04-30 14:42 | 59.81792 | 30.19167 | 2353 ft | 163 kts | 287° |
| 2026-04-30 14:42 | 59.82103 | 30.16985 | 2869 ft | 168 kts | 287° |
| 2026-04-30 14:43 | 59.82427 | 30.14678 | 3282 ft | 183 kts | 287° |
| 2026-04-30 14:43 | 59.82806 | 30.12140 | 3704 ft | 200 kts | 287° |
| 2026-04-30 14:43 | 59.83215 | 30.09379 | 4144 ft | 217 kts | 286° |
| 2026-04-30 14:43 | 59.83646 | 30.06411 | 4587 ft | 234 kts | 286° |
| 2026-04-30 14:44 | 59.84088 | 30.03231 | 5187 ft | 244 kts | 281° |
| 2026-04-30 14:44 | 59.84019 | 29.99894 | 5888 ft | 246 kts | 249° |
| 2026-04-30 14:44 | 59.83063 | 29.97155 | 6576 ft | 248 kts | 217° |
| 2026-04-30 14:44 | 59.81506 | 29.95694 | 7253 ft | 249 kts | 196° |
| 2026-04-30 14:45 | 59.79852 | 29.94791 | 7907 ft | 252 kts | 195° |
| 2026-04-30 14:45 | 59.78143 | 29.93887 | 8562 ft | 255 kts | 195° |
| 2026-04-30 14:45 | 59.76432 | 29.92992 | 9197 ft | 258 kts | 190° |
| 2026-04-30 14:45 | 59.74623 | 29.93109 | 9528 ft | 273 kts | 161° |
| 2026-04-30 14:46 | 59.73001 | 29.95138 | 9876 ft | 285 kts | 130° |
| 2026-04-30 14:46 | 59.72072 | 29.98578 | 10342 ft | 290 kts | 107° |
| 2026-04-30 14:46 | 59.71506 | 30.02532 | 10591 ft | 303 kts | 105° |
| 2026-04-30 14:46 | 59.71062 | 30.06636 | 10827 ft | 316 kts | 99° |
| 2026-04-30 14:47 | 59.70715 | 30.11017 | 11061 ft | 328 kts | 98° |
| 2026-04-30 14:47 | 59.70375 | 30.15585 | 11293 ft | 341 kts | 98° |
| 2026-04-30 14:47 | 59.70016 | 30.20293 | 11666 ft | 348 kts | 98° |
| 2026-04-30 14:47 | 59.69641 | 30.25092 | 12207 ft | 351 kts | 98° |
| 2026-04-30 14:48 | 59.69256 | 30.29923 | 12755 ft | 353 kts | 98° |
| 2026-04-30 14:48 | 59.68869 | 30.34712 | 13282 ft | 356 kts | 98° |
| 2026-04-30 14:48 | 59.68470 | 30.39583 | 13814 ft | 359 kts | 98° |
| 2026-04-30 14:48 | 59.68072 | 30.44420 | 14342 ft | 361 kts | 99° |
| 2026-04-30 14:49 | 59.67663 | 30.49358 | 14875 ft | 364 kts | 99° |
| 2026-04-30 14:49 | 59.67253 | 30.54281 | 15400 ft | 367 kts | 99° |
| 2026-04-30 14:49 | 59.66835 | 30.59279 | 15919 ft | 370 kts | 99° |
| 2026-04-30 14:49 | 59.66409 | 30.64340 | 16428 ft | 373 kts | 99° |
| 2026-04-30 14:50 | 59.64009 | 30.92447 | 18955 ft | 379 kts | 99° |
| 2026-04-30 14:50 | 59.61256 | 31.23707 | 20354 ft | 388 kts | 99° |
| 2026-04-30 14:51 | 59.58403 | 31.55260 | 21706 ft | 402 kts | 99° |
| 2026-04-30 14:51 | 59.55347 | 31.88179 | 23563 ft | 407 kts | 101° |
| 2026-04-30 14:51 | 59.52052 | 32.13570 | 24281 ft | 421 kts | 126° |
| 2026-04-30 14:52 | 59.50006 | 32.18061 | 24648 ft | 422 kts | 136° |
| 2026-04-30 14:52 | 59.37210 | 32.41758 | 26414 ft | 427 kts | 135° |
| 2026-04-30 14:52 | 59.24614 | 32.66223 | 27268 ft | 433 kts | 135° |
| 2026-04-30 14:53 | 58.98407 | 33.16150 | 28813 ft | 444 kts | 136° |
| 2026-04-30 14:53 | 58.85155 | 33.40828 | 30429 ft | 445 kts | 136° |
| 2026-04-30 14:54 | 58.71281 | 33.66287 | 32663 ft | 444 kts | 137° |
| 2026-04-30 14:54 | 58.65867 | 33.76218 | 32980 ft | 449 kts | 136° |
| 2026-04-30 14:55 | 58.42184 | 34.19046 | 32983 ft | 449 kts | 137° |
| 2026-04-30 14:56 | 58.03112 | 34.85472 | 32985 ft | 449 kts | 142° |
| 2026-04-30 14:57 | 57.64840 | 35.44426 | 32983 ft | 449 kts | 140° |
| 2026-04-30 14:58 | 57.41921 | 35.79206 | 32432 ft | 449 kts | 141° |
| 2026-04-30 14:58 | 57.39628 | 35.82677 | 31842 ft | 448 kts | 141° |
| 2026-04-30 14:58 | 57.35017 | 35.89630 | 30134 ft | 458 kts | 141° |
| 2026-04-30 14:59 | 57.30283 | 35.96753 | 28377 ft | 464 kts | 141° |
| 2026-04-30 15:00 | 57.23339 | 36.07143 | 25528 ft | 445 kts | 141° |
| 2026-04-30 15:00 | 57.18809 | 36.13890 | 22665 ft | 444 kts | 141° |
| 2026-04-30 15:01 | 57.14298 | 36.20582 | 19793 ft | 438 kts | 141° |
| 2026-04-30 15:01 | 57.12064 | 36.23885 | 18356 ft | 434 kts | 141° |
| 2026-04-30 15:01 | 57.07653 | 36.30389 | 15482 ft | 426 kts | 141° |
| 2026-04-30 15:02 | 57.05494 | 36.33565 | 14053 ft | 421 kts | 141° |
| 2026-04-30 15:02 | 57.03357 | 36.36700 | 12668 ft | 414 kts | 141° |
| 2026-04-30 15:03 | 56.97144 | 36.45680 | 8678 ft | 390 kts | 141° |
| 2026-04-30 15:03 | 56.93322 | 36.51172 | 7592 ft | 336 kts | 141° |
| 2026-04-30 15:04 | 56.90121 | 36.55740 | 7346 ft | 281 kts | 142° |
| 2026-04-30 15:04 | 56.85950 | 36.61695 | 6978 ft | 252 kts | 141° |
| 2026-04-30 15:05 | 56.81995 | 36.67412 | 6625 ft | 262 kts | 142° |
| 2026-04-30 15:06 | 56.79217 | 36.71451 | 6386 ft | 270 kts | 142° |
| 2026-04-30 15:06 | 56.72765 | 36.80748 | 5847 ft | 269 kts | 141° |